Deva — A8OK3 — position and weather

sailwx.info

Track history (hours):
 
Tides and Currents Weather Stations Pressure Air Temp Water Temp Dewpoint Dewpoint Depression Visibility Wind Speed Wind Dir Waves Ship Positions

Deva

Last reported at 2016-Jul-26 07:27 UTC. Time now 2016-Jul-27 07:48 UTC.
Position N 01°56' E 102°19'.

Length 259 m; draft 11.9 m.

Type: Ship (hazmat cat A). MMSI: 636013644.

Date/timePositionNaut miles runAvg speedWind from/ knotsBaromVisibWave heightAir tempDewpointWater temp
2016-Jul-26 07:27N 01°56' E 102°19'1517.2
2016-Jul-26 06:34N 01°48' E 102°33'1716.6
2016-Jul-26 05:33N 01°41' E 102°48'6815.5
2016-Jul-26 01:09N 01°11' E 103°49'814.0
2016-Jul-26 00:34N 01°14' E 103°56'1613.5
2016-Jul-25 23:25N 01°17' E 104°12'  
2016-Jul-22 01:32N 22°18' E 114°06'1110.8
2016-Jul-22 00:33N 22°22' E 113°55'3 0.2
2016-Jul-21 09:33N 22°24' E 113°54'10 9.6
2016-Jul-21 08:33N 22°21' E 114°03'17412.1
2016-Jul-20 18:08N 22°58' E 117°08'10714.1
2016-Jul-20 10:33N 24°06' E 118°38'1613.4
2016-Jul-20 09:23N 24°16' E 118°51'1213.9
2016-Jul-20 08:32N 24°23' E 119°01'2014.2
2016-Jul-20 07:07N 24°37' E 119°17'40412.4
2016-Jul-18 22:26N 30°28' E 123°03'7911.4
2016-Jul-18 15:29N 31°17' E 121°50'1010.3
2016-Jul-18 14:33N 31°21' E 121°40'4 2.9
2016-Jul-18 13:12N 31°22' E 121°35'0 0.1
2016-Jul-18 12:24N 31°22' E 121°35'0 0.0
2016-Jul-18 11:30N 31°22' E 121°35'0 0.0
2016-Jul-18 10:12N 31°22' E 121°35'0 0.0
2016-Jul-18 09:30N 31°22' E 121°35'0 0.0
2016-Jul-18 08:30N 31°22' E 121°35'0 0.1
2016-Jul-18 07:30N 31°22' E 121°35'0 0.0
2016-Jul-18 06:24N 31°22' E 121°35'0 0.0
2016-Jul-18 04:18N 31°22' E 121°35'0 0.0
2016-Jul-18 02:29N 31°22' E 121°35'0 0.2
2016-Jul-18 01:33N 31°23' E 121°35'9 8.3
2016-Jul-18 00:27N 31°19' E 121°45'9 9.8
2016-Jul-17 23:31N 31°16' E 121°55'100 5.8
2016-Jul-17 06:17N 29°42' E 122°37'1911.1
2016-Jul-17 04:32N 29°47' E 122°15'1110.9
2016-Jul-17 03:33N 29°55' E 122°07'1212.4
2016-Jul-17 02:33N 29°57' E 121°53'2 0.4
2016-Jul-16 21:19N 29°57' E 121°51'0 0.0
2016-Jul-16 18:31N 29°57' E 121°51'0 0.0
2016-Jul-16 15:33N 29°57' E 121°51'2 2.5
2016-Jul-16 14:33N 29°57' E 121°53'1010.2
2016-Jul-16 13:33N 29°55' E 122°05'1311.6
2016-Jul-16 12:27N 29°47' E 122°16'7 7.9
2016-Jul-16 11:33N 29°44' E 122°24'6 5.7
2016-Jul-16 10:33N 29°45' E 122°30'  
Track history (hours):
 
Tides and Currents Weather Stations Pressure Air Temp Water Temp Dewpoint Dewpoint Depression Visibility Wind Speed Wind Dir Waves Ship Positions

Deva

Last reported at 2016-Jul-26 07:27 UTC. Time now 2016-Jul-27 07:48 UTC.
Position N 01°56' E 102°19'.

Length 259 m; draft 11.9 m.

Type: Ship (hazmat cat A). MMSI: 636013644.

Date/timePositionNaut miles runAvg speedWind from/ knotsBaromVisibWave heightAir tempDewpointWater temp
2016-Jul-26 07:27N 01°56' E 102°19'1517.2
2016-Jul-26 06:34N 01°48' E 102°33'1716.6
2016-Jul-26 05:33N 01°41' E 102°48'6815.5
2016-Jul-26 01:09N 01°11' E 103°49'814.0
2016-Jul-26 00:34N 01°14' E 103°56'1613.5
2016-Jul-25 23:25N 01°17' E 104°12'  
2016-Jul-22 01:32N 22°18' E 114°06'1110.8
2016-Jul-22 00:33N 22°22' E 113°55'3 0.2
2016-Jul-21 09:33N 22°24' E 113°54'10 9.6
2016-Jul-21 08:33N 22°21' E 114°03'17412.1
2016-Jul-20 18:08N 22°58' E 117°08'10714.1
2016-Jul-20 10:33N 24°06' E 118°38'1613.4
2016-Jul-20 09:23N 24°16' E 118°51'1213.9
2016-Jul-20 08:32N 24°23' E 119°01'2014.2
2016-Jul-20 07:07N 24°37' E 119°17'40412.4
2016-Jul-18 22:26N 30°28' E 123°03'7911.4
2016-Jul-18 15:29N 31°17' E 121°50'1010.3
2016-Jul-18 14:33N 31°21' E 121°40'4 2.9
2016-Jul-18 13:12N 31°22' E 121°35'0 0.1
2016-Jul-18 12:24N 31°22' E 121°35'0 0.0
2016-Jul-18 11:30N 31°22' E 121°35'0 0.0
2016-Jul-18 10:12N 31°22' E 121°35'0 0.0
2016-Jul-18 09:30N 31°22' E 121°35'0 0.0
2016-Jul-18 08:30N 31°22' E 121°35'0 0.1
2016-Jul-18 07:30N 31°22' E 121°35'0 0.0
2016-Jul-18 06:24N 31°22' E 121°35'0 0.0
2016-Jul-18 04:18N 31°22' E 121°35'0 0.0
2016-Jul-18 02:29N 31°22' E 121°35'0 0.2
2016-Jul-18 01:33N 31°23' E 121°35'9 8.3
2016-Jul-18 00:27N 31°19' E 121°45'9 9.8
2016-Jul-17 23:31N 31°16' E 121°55'100 5.8
2016-Jul-17 06:17N 29°42' E 122°37'1911.1
2016-Jul-17 04:32N 29°47' E 122°15'1110.9
2016-Jul-17 03:33N 29°55' E 122°07'1212.4
2016-Jul-17 02:33N 29°57' E 121°53'2 0.4
2016-Jul-16 21:19N 29°57' E 121°51'0 0.0
2016-Jul-16 18:31N 29°57' E 121°51'0 0.0
2016-Jul-16 15:33N 29°57' E 121°51'2 2.5
2016-Jul-16 14:33N 29°57' E 121°53'1010.2
2016-Jul-16 13:33N 29°55' E 122°05'1311.6
2016-Jul-16 12:27N 29°47' E 122°16'7 7.9
2016-Jul-16 11:33N 29°44' E 122°24'6 5.7
2016-Jul-16 10:33N 29°45' E 122°30'  

Dump ship's entire track history